Tiempo atmosférico en la estación meteorológica de Ceuta, Ceuta (87 m.)



Fecha
DESCASC
Temp. máxima en grados centígrados (hora)
DESCASC
Temp. mínima en grados centígrados (hora)
DESCASC
Temp. media en grados centígrados
DESCASC
Racha de viento máxima en m/sg (hora)
DESCASC
Velocidad máxima media en intervalos de 10 minutos(hora)
DESCASC
Precipitaciones diarias en mm
DESCASC
Precipitaciones de 00:00 a 06:00 en mm
DESCASC
Precipitaciones de 06:00 a 12:00 en mm
DESCASC
Precipitaciones de 12:00 a 18:00 en mm
DESCASC
Precipitaciones de 18:00 a 24:00 en mm
DESCASC
14-12-2019 17.8 (13:30) 14.1 (23:59) 15.9 13.06 (10:20) 6.39 (10:20) 0 0 0 0 0
13-12-2019 17.9 (13:50) 14.2 (03:20) 16 14.17 (15:10) 6.11 (15:10) 2.8 0.6 2.2 0 0
12-12-2019 15.7 (23:50) 12.3 (04:40) 14 14.44 (19:50) 7.22 (04:30) 0 0 0 0 0
11-12-2019 18.9 (14:30) 13.7 (00:00) 16.3 15 (10:10) 6.39 (07:10) 0 0 0 0 0
10-12-2019 20 (15:40) 13.2 (00:00) 16.6 5.28 (14:40) 2.78 (11:40) 0 0 0 0 0
09-12-2019 20.2 (15:00) 15.2 (00:00) 17.7 13.89 (02:10) 6.11 (02:20) 0 0 0 0 0
08-12-2019 19.9 (13:40) 12.6 (00:00) 16.3 10.28 (22:20) 4.72 (22:10) 0 0 0 0 0
07-12-2019 17.5 (12:10) 14 (00:00) 15.8 8.89 (03:00) 5 (03:00) 0 0 0 0 0
06-12-2019 17.4 (13:20) 15.1 (00:00) 16.3 12.22 (00:20) 7.22 (05:50) 0 0 0 0 0
05-12-2019 15.3 (21:00) 11.2 (00:00) 13.3 11.11 (23:20) 6.94 (23:10) 2.6 1.8 0 0.8 0
04-12-2019 16.9 (13:00) 12.9 (00:00) 14.9 11.39 (15:50) 5 (11:00) 3.2 0 3 0 0.2
03-12-2019 15.6 (16:30) 12.1 (00:00) 13.9 10 (06:00) 6.67 (06:00) 3.4 2 1.4 0 0
02-12-2019 16.6 (11:20) 11.4 (00:00) 14 8.33 (14:50) 4.72 (23:59) 30 2 0.4 9.6 18
01-12-2019 17.9 (16:10) 13.3 (00:00) 15.6 12.5 (19:00) 4.72 (08:10) 9 1 4.2 2.4 1.4
30-11-2019 21.3 (15:10) 13.9 (00:00) 17.6 8.33 (14:40) 4.17 (19:50) 0 0 0 0 0
29-11-2019 23.3 (13:10) 14.7 (00:00) 19 7.78 (02:10) 3.89 (02:00) 0 0 0 0 0
28-11-2019 21 (14:30) 13.9 (00:00) 17.4 11.67 (20:20) 6.39 (20:30) 0 0 0 0 0
27-11-2019 18.2 (13:40) 15.8 (00:00) 17 11.94 (05:20) 4.72 (05:20) 1.6 0 1 0.6 0
26-11-2019 20.9 (16:20) 17.3 (00:00) 19.1 10 (20:00) 3.61 (20:30) 0 0 0 0 0
25-11-2019 20.9 (14:20) 13.6 (00:00) 17.3 8.89 (10:00) 3.89 (13:00) 0 0 0 0 0
24-11-2019 17.2 (13:50) 12 (00:00) 14.6 8.89 (14:30) 4.72 (19:30) 0 0 0 0 0
23-11-2019 17.2 (01:30) 12.6 (00:00) 14.9 21.39 (00:50) 9.44 (08:40) 3.4 0 3.4 0 0
22-11-2019 19.6 (14:40) 15 (00:00) 17.3 21.67 (21:50) 9.72 (22:00) 29.6 3.6 3 0.6 22.4
21-11-2019 19.8 (14:10) 13.8 (00:00) 16.8 10.56 (07:00) 5.28 (07:40) 11.2 0.4 1.8 8.6 0.4
20-11-2019 16 (11:50) 12 (00:00) 14 8.61 (16:20) 3.89 (16:10) 17.6 0 0 17.4 0.2
19-11-2019 18.2 (15:00) 12 (00:00) 15.1 7.78 (00:10) 3.61 (13:00) 0 0 0 0 0
18-11-2019 16.2 (15:00) 10.8 (00:00) 13.5 18.06 (06:20) 8.89 (07:50) 27 23.8 3.2 0 0
17-11-2019 18.5 (15:00) 11 (00:00) 14.8 12.78 (18:00) 5.28 (19:20) 2.4 0 0 0 2.4
16-11-2019 14.8 (13:50) 8.9 (00:00) 11.8 13.33 (16:00) 4.72 (05:40) 0 0 0 0 0
15-11-2019 14.6 (13:40) 11.2 (00:00) 12.9 18.89 (09:10) 9.72 (09:20) 0 0 0 0 0

Gráficas

Temp. máximas Temp. mínimas Temp. medias Precipitaciones Rachas de viento máximas Velocidades máximas media en intervalos de 10 minutos

Datos horarios

Fecha y hora oficial Temperatura (ºC) Velocidad del viento (km/h) Dirección del viento Racha (km/h) Dirección de racha Precipitación (mm) Presión (hPa) Tendencia (hPa) Humedad (%)
2019-12-14 23:00:00 14.4 8 Sur 20 Oeste 0 1009.2 -0.5 68
2019-12-14 22:00:00 14.6 7 Sur 23 Sudeste 0 1009.4 -0.3 66
2019-12-14 21:00:00 14.3 11 Este 24 Este 0 1009.7 0 68
2019-12-14 20:00:00 14.3 10 Este 24 Este 0 1009.7 0 69
2019-12-14 19:00:00 14.6 7 Este 25 Noroeste 0 1009.7 0.1 67
2019-12-14 18:00:00 14.7 5 Nordeste 27 Noroeste 0 1009.7 0.1 66
2019-12-14 17:00:00 16 9 Oeste 31 Noroeste 0 1009.7 -0.3 61
2019-12-14 16:00:00 16.9 7 Noroeste 31 Noroeste 0 1009.6 -1.2 59
2019-12-14 15:00:00 17.4 9 Noroeste 28 Noroeste 0 1009.6 -1.9 60
2019-12-14 14:00:00 16.9 14 Noroeste 33 Noroeste 0 1010 -1.8 61
2019-12-14 13:00:00 17.6 9 Noroeste 26 Oeste 0 1010.8 -0.8 60
2019-12-14 12:00:00 16.8 14 Noroeste 38 Noroeste 0 1011.5 -0.2 62
2019-12-14 11:00:00 16.1 18 Noroeste 47 Noroeste 0 1011.8 0.4 66
2019-12-14 10:00:00 15.3 20 Noroeste 42 Noroeste 0 1011.6 0.5 72
2019-12-14 09:00:00 14.4 19 Noroeste 39 Oeste 0 1011.7 0.9 73
2019-12-14 08:00:00 14.2 6 Oeste 20 Noroeste 0 1011.4 0.3 74
2019-12-14 07:00:00 14.5 7 Noroeste 19 Noroeste 0 1011.1 -0.4 78
2019-12-14 06:00:00 14.9 7 Oeste 21 Oeste 0 1010.8 -1.2 76
2019-12-14 05:00:00 14.7 3 Sudoeste 27 Noroeste 0 1011.1 -1.1 77
2019-12-14 04:00:00 15.2 4 Norte 16 Oeste 0 1011.5 -1.1 75
2019-12-14 03:00:00 15.8 5 Oeste 18 Norte 0 1012 -1 76
2019-12-14 02:00:00 16.1 8 Sudoeste 33 Noroeste 0 1012.2 -1 76
2019-12-14 01:00:00 16 8 Oeste 31 Oeste 0 1012.6 -0.6 75
2019-12-14 00:00:00 16 5 Oeste 32 Sudoeste 0 1013 0 76
2019-12-13 23:00:00 15.9 8 Oeste 26 Oeste 0 1013.2 0.2 82
2019-12-13 22:00:00 15.7 6 Sudoeste 37 Oeste 0 1013.2 0.3 81
2019-12-13 21:00:00 16 10 Oeste 29 Noroeste 0 1013 0.2 79
2019-12-13 20:00:00 16 10 Oeste 28 Sudoeste 0 1013 0.5 77
2019-12-13 19:00:00 16.1 11 Oeste 38 Noroeste 0 1012.9 0.1 75
2019-12-13 18:00:00 16.3 8 Sudoeste 36 Noroeste 0 1012.8 -0.2 75
2019-12-13 17:00:00 16.2 14 Noroeste 32 Noroeste 0 1012.5 -0.8 84
2019-12-13 16:00:00 16.2 10 Oeste 51 Noroeste 0 1012.8 -1.3 82
2019-12-13 15:00:00 17.2 18 Noroeste 49 Norte 0 1013 -2.2 73
2019-12-13 14:00:00 17.7 14 Noroeste 38 Noroeste 0 1013.3 -1.7 74
2019-12-13 13:00:00 16.8 10 Noroeste 50 Noroeste 0 1014.1 -0.9 85
2019-12-13 12:00:00 15.7 19 Oeste 48 Oeste 0 1015.2 1 88
2019-12-13 11:00:00 15.4 16 Oeste 39 Sudoeste 0.6 1015 1.1 90
2019-12-13 10:00:00 15 16 Oeste 42 Oeste 0.4 1015 1.1 91
2019-12-13 09:00:00 15.3 17 Sudoeste 51 Oeste 0.2 1014.2 0.7 87
2019-12-13 08:00:00 15 12 Sudoeste 44 Sudoeste 0.4 1013.9 0 90
2019-12-13 07:00:00 15.1 14 Sudoeste 50 Oeste 0.6 1013.9 0.2 88
2019-12-13 06:00:00 14.9 15 Oeste 41 Oeste 0.4 1013.5 -0.5 86
2019-12-13 05:00:00 15.1 15 Oeste 42 Sudoeste 0 1013.9 -0.3 83
2019-12-13 04:00:00 14.7 14 Sudoeste 36 Oeste 0 1013.7 -0.7 83
2019-12-13 03:00:00 14.4 7 Sudoeste 33 Noroeste 0.2 1014 -0.3 84
2019-12-13 02:00:00 15.7 14 Sudoeste 46 Sudoeste 0 1014.2 -0.3 73
2019-12-13 01:00:00 15.8 17 Oeste 44 Oeste 0 1014.4 -0.2 72
2019-12-13 00:00:00 15.7 15 Oeste 47 Noroeste 0 1014.3 -0.3 70
2019-12-12 23:00:00 15.5 14 Oeste 45 Sudoeste 0 1014.5 -0.4 71
2019-12-12 22:00:00 15.5 15 Oeste 39 Sur 0 1014.6 -0.1 72
2019-12-12 21:00:00 15.3 12 Oeste 39 Oeste 0 1014.6 -0.3 70
2019-12-12 20:00:00 15 14 Oeste 52 Oeste 0 1014.9 -0.6 66
2019-12-12 19:00:00 14.6 18 Oeste 41 Noroeste 0 1014.7 -0.4 65
2019-12-12 18:00:00 14.3 12 Oeste 35 Oeste 0 1014.9 -0.7 66
2019-12-12 17:00:00 14.5 15 Noroeste 41 Noroeste 0 1015.5 -0.9 67
2019-12-12 16:00:00 15.1 14 Noroeste 47 Noroeste 0 1015.1 -2.2 61
2019-12-12 15:00:00 14.2 12 Noroeste 35 Noroeste 0 1015.6 -2.6 68
2019-12-12 14:00:00 14.1 7 Oeste 42 Noroeste 0 1016.4 -1 69
2019-12-12 13:00:00 14.2 21 Noroeste 46 Noroeste 0 1017.3 0 64
2019-12-12 12:00:00 15 13 Oeste 32 Noroeste 0 1018.2 1.8 56
2019-12-12 11:00:00 14.3 10 Oeste 28 Noroeste 0 1017.4 1.5 52
2019-12-12 10:00:00 13.1 5 Sudoeste 29 Noroeste 0 1017.3 1.7 53
2019-12-12 09:00:00 13 14 Oeste 42 Noroeste 0 1016.4 0.5 51
2019-12-12 08:00:00 12.3 13 Oeste 41 Noroeste 0 1015.9 0.1 52
2019-12-12 07:00:00 12.7 20 Noroeste 51 Noroeste 0 1015.6 -0.1 48
2019-12-12 06:00:00 12.5 6 Noroeste 44 Noroeste 0 1015.9 0.5 52
2019-12-12 05:00:00 12.4 20 Noroeste 49 Noroeste 0 1015.8 0.1 58
2019-12-12 04:00:00 12.7 13 Oeste 39 Noroeste 0 1015.7 -0.5 59
2019-12-12 03:00:00 12.8 6 Sudoeste 23 Sudoeste 0 1015.4 -0.8 63
2019-12-12 02:00:00 13.1 5 Sudoeste 30 Noroeste 0 1015.7 -0.1 64
2019-12-12 01:00:00 13.9 12 Oeste 32 Noroeste 0 1016.2 -0.3 57
2019-12-12 00:00:00 13.7 4 Este 19 Noroeste 0 1016.2 -0.7 74
2019-12-11 23:00:00 14.1 6 Oeste 21 Oeste 0 1015.8 -0.5 70
2019-12-11 22:00:00 14.2 7 Oeste 32 Noroeste 0 1016.5 0.9 71
2019-12-11 21:00:00 14.6 6 Oeste 36 Oeste 0 1016.9 1.9 77
2019-12-11 20:00:00 15.3 15 Noroeste 41 Noroeste 0 1016.3 1.8 75
2019-12-11 19:00:00 15.6 12 Noroeste 44 Oeste 0 1015.6 1.1 79
2019-12-11 18:00:00 16.2 13 Oeste 43 Sudoeste 0 1015 0.6 74
2019-12-11 17:00:00 17.3 15 Oeste 42 Oeste 0 1014.5 -0.5 66
2019-12-11 16:00:00 18.3 6 Noroeste 42 Sudoeste 0 1014.5 -1 61
2019-12-11 15:00:00 18.4 13 Oeste 36 Oeste 0 1014.4 -1.5 64
2019-12-11 14:00:00 18.5 12 Oeste 32 Noroeste 0 1015 -0.4 64
2019-12-11 13:00:00 18 11 Oeste 32 Noroeste 0 1015.5 0.8 69
2019-12-11 12:00:00 17.1 12 Oeste 44 Noroeste 0 1015.9 1.1 68
2019-12-11 11:00:00 17.1 20 Oeste 54 Noroeste 0 1015.4 1.3 69
2019-12-11 10:00:00 16.2 22 Oeste 49 Noroeste 0 1014.7 1.3 72
2019-12-11 09:00:00 15.6 11 Sudoeste 41 Oeste 0 1014.8 1.2 69
2019-12-11 08:00:00 15.4 19 Oeste 46 Oeste 0 1014.1 0.9 71
2019-12-11 07:00:00 15.9 19 Noroeste 38 Noroeste 0 1013.4 0.2 62
2019-12-11 06:00:00 15.1 10 Sudoeste 38 Noroeste 0 1013.6 0.1 69
2019-12-11 05:00:00 15.2 17 Oeste 39 Noroeste 0 1013.2 -0.6 71
2019-12-11 04:00:00 15.8 18 Noroeste 38 Oeste 0 1013.2 -1.1 61
2019-12-11 03:00:00 15.4 18 Noroeste 41 Oeste 0 1013.5 -0.9 60
2019-12-11 02:00:00 15.4 6 Noroeste 21 Noroeste 0 1013.8 -0.6 54
2019-12-11 01:00:00 14.9 8 Sudoeste 17 Sudoeste 0 1014.3 -0.5 58
2019-12-11 00:00:00 13.9 5 Sudoeste 11 Sudoeste 0 1014.4 -0.5 56
2019-12-10 23:00:00 14.6 8 Sudoeste 12 Sudoeste 0 1014.4 -0.6 57
2019-12-10 22:00:00 13.9 4 Sur 11 Oeste 0 1014.8 0.3 64
2019-12-10 21:00:00 13.7 6 Noroeste 10 Sudoeste 0 1014.9 0.4 78
2019-12-10 20:00:00 14.4 4 Sur 9 Sudeste 0 1015 0.4 76
2019-12-10 19:00:00 14.6 3 Sur 5 Sudoeste 0 1014.5 0.1 74
2019-12-10 18:00:00 16.3 3 Sur 6 Sudeste 0 1014.5 -0.1 70
2019-12-10 17:00:00 18 4 Nordeste 19 Sudoeste 0 1014.6 -0.8 68
2019-12-10 16:00:00 19.8 5 Oeste 18 Oeste 0 1014.4 -2 62
2019-12-10 15:00:00 19.6 6 Noroeste 19 Oeste 0 1014.6 -2.6 58
2019-12-10 14:00:00 19.6 5 Sudeste 12 Este 0 1015.4 -1.8 63
2019-12-10 13:00:00 18.3 6 Nordeste 11 Este 0 1016.4 -0.1 68
2019-12-10 12:00:00 18.5 6 Sudeste 14 Sudeste 0 1017.2 0.9 69
2019-12-10 11:00:00 17.2 5 Este 8 Este 0 1017.2 1.1 70
2019-12-10 10:00:00 16.4 3 Sudeste 7 Este 0 1016.5 0.5 78
2019-12-10 09:00:00 14.3 4 Sudeste 7 Sur 0 1016.3 0.6 85
2019-12-10 08:00:00 13.3 5 Oeste 8 Oeste 0 1016.1 0.1 85
2019-12-10 07:00:00 13.7 4 Oeste 8 Noroeste 0 1016 -0.2 84
2019-12-10 06:00:00 13.6 4 Oeste 8 Noroeste 0 1015.7 -0.6 83
2019-12-10 05:00:00 13.9 4 Noroeste 10 Noroeste 0 1016 -0.3 81
2019-12-10 04:00:00 14.3 4 Oeste 9 Oeste 0 1016.2 -0.8 80
2019-12-10 03:00:00 14.3 2 Noroeste 13 Oeste 0 1016.3 -0.8 83
2019-12-10 02:00:00 14.4 5 Oeste 10 Oeste 0 1016.3 -0.9 81
2019-12-10 01:00:00 15.1 4 Sudoeste 16 Noroeste 0 1017 -0.4 80
2019-12-10 00:00:00 15.3 4 Oeste 10 Noroeste 0 1017.1 0.1 82
2019-12-09 23:00:00 15.5 5 Norte 15 Oeste 0 1017.2 0.3 80
2019-12-09 22:00:00 15.7 5 Noroeste 17 Noroeste 0 1017.4 0.9 80
2019-12-09 21:00:00 16 8 Oeste 36 Noroeste 0 1017 0.9 82
2019-12-09 20:00:00 16.2 14 Noroeste 41 Noroeste 0 1016.9 0.9 80
2019-12-09 19:00:00 16.3 19 Noroeste 48 Oeste 0 1016.5 0.6 81
2019-12-09 18:00:00 16.8 15 Noroeste 32 Noroeste 0 1016.1 0.1 78
2019-12-09 17:00:00 17.5 16 Noroeste 37 Noroeste 0 1016 -0.4 75
2019-12-09 16:00:00 18.2 9 Oeste 31 Oeste 0 1015.9 -1.6 73
2019-12-09 15:00:00 20.2 11 Oeste 28 Oeste 0 1016 -2.4 63
2019-12-09 14:00:00 19.8 8 Sur 36 Noroeste 0 1016.4 -1.9 67
2019-12-09 13:00:00 19.1 14 Noroeste 46 Oeste 0 1017.5 -0.5 67
2019-12-09 12:00:00 18.4 21 Noroeste 48 Noroeste 0 1018.4 1.1 69
2019-12-09 11:00:00 17.9 9 Sudoeste 45 Oeste 0 1018.3 1.6 73
2019-12-09 10:00:00 16.6 10 Noroeste 26 Oeste 0 1018 1.6 78
2019-12-09 09:00:00 16.4 7 Sudoeste 20 Sudoeste 0 1017.3 1.2 82
2019-12-09 08:00:00 15.8 10 Oeste 27 Oeste 0 1016.7 0.7 85
2019-12-09 07:00:00 15.8 9 Oeste 30 Oeste 0 1016.4 0.2 83
2019-12-09 06:00:00 15.8 7 Oeste 23 Sudoeste 0 1016.1 -0.1 82
2019-12-09 05:00:00 15.7 9 Oeste 25 Sudoeste 0 1016 -0.3 80
2019-12-09 04:00:00 15.6 13 Oeste 37 Noroeste 0 1016.2 -0.2 80
2019-12-09 03:00:00 15.8 18 Oeste 50 Noroeste 0 1016.2 -0.1 74
2019-12-09 02:00:00 15.5 15 Noroeste 39 Oeste 0 1016.3 0.1 71
2019-12-09 01:00:00 15.4 15 Oeste 35 Oeste 0 1016.4 0.2 77
2019-12-09 00:00:00 15.4 16 Oeste 37 Oeste 0 1016.3 -0.1 75
2019-12-08 23:00:00 15.6 12 Oeste 37 Noroeste 0 1016.2 0.2 71
2019-12-08 22:00:00 15.5 15 Oeste 37 Noroeste 0 1016.2 0.6 73
2019-12-08 21:00:00 15.2 5 Nordeste 25 Noroeste 0 1016.4 1.4 74
2019-12-08 20:00:00 15.7 5 Oeste 20 Sudeste 0 1016 1.1 71
2019-12-08 19:00:00 15.9 9 Oeste 25 Noroeste 0 1015.6 0.9 71
2019-12-08 18:00:00 16.1 8 Oeste 28 Noroeste 0 1015 0.1 69
2019-12-08 17:00:00 17.3 11 Noroeste 27 Oeste 0 1014.9 -0.3 62
2019-12-08 16:00:00 18.4 11 Oeste 33 Oeste 0 1014.7 -1.2 59
2019-12-08 15:00:00 19.2 7 Oeste 23 Norte 0 1014.9 -1.8 58
2019-12-08 14:00:00 19.3 12 Oeste 24 Noroeste 0 1015.2 -1.4 54
2019-12-08 13:00:00 19.3 6 Sudoeste 26 Noroeste 0 1015.9 -0.3 60
2019-12-08 12:00:00 18.3 4 Sur 10 Nordeste 0 1016.7 0.8 70
2019-12-08 11:00:00 16.9 5 Sur 8 Sur 0 1016.6 1.2 79
2019-12-08 10:00:00 15.1 2 Este 6 Este 0 1016.2 1.3 90
2019-12-08 09:00:00 12.8 3 Noroeste 7 Sudoeste 0 1015.9 1.3 96
2019-12-08 08:00:00 12.6 6 Sudoeste 8 Sudoeste 0 1015.4 0.6 96
2019-12-08 07:00:00 13 6 Sudoeste 8 Oeste 0 1014.9 0.1 97
2019-12-08 06:00:00 13 4 Oeste 6 Oeste 0 1014.6 -0.4 97
2019-12-08 05:00:00 13.6 3 Noroeste 6 Norte 0 1014.8 0 97
2019-12-08 04:00:00 14 2 Sudoeste 6 Oeste 0 1014.8 -0.3 97
2019-12-08 03:00:00 13.7 4 Sudoeste 7 Oeste 0 1015 -0.2 98
2019-12-08 02:00:00 13.3 3 Oeste 5 Oeste 0 1014.8 -0.2 96
2019-12-08 01:00:00 13.4 3 Oeste 8 Oeste 0 1015.1 0.3 94
2019-12-08 00:00:00 14 4 Sudoeste 8 Sudoeste 0 1015.2 0.9 94
2019-12-07 23:00:00 14 6 Sudoeste 9 Sudoeste 0 1015 1.1 95
2019-12-07 22:00:00 14.4 5 Sudoeste 10 Sudoeste 0 1014.8 1.3 95
2019-12-07 21:00:00 14.7 5 Sudoeste 9 Sudoeste 0 1014.3 1.3 93
2019-12-07 20:00:00 14.9 5 Sudoeste 10 Sudoeste 0 1013.9 1.6 93
2019-12-07 19:00:00 15.4 5 Sur 10 Sudeste 0 1013.5 1.4 91
2019-12-07 18:00:00 15.6 8 Sur 15 Sudeste 0 1013 1.1 90
2019-12-07 17:00:00 16.1 8 Sudeste 15 Sur 0 1012.3 0.1 87
2019-12-07 16:00:00 16.8 9 Sudeste 18 Sudeste 0 1012.1 -0.8 84
2019-12-07 15:00:00 16.5 10 Este 20 Sudeste 0 1011.9 -1.3 85
2019-12-07 14:00:00 16.5 14 Sudeste 22 Sudeste 0 1012.2 -0.8 85
2019-12-07 13:00:00 16.6 14 Sudeste 25 Sudeste 0 1012.9 0.6 83
2019-12-07 12:00:00 17 13 Sudeste 25 Sudeste 0 1013.2 1.2 82
2019-12-07 11:00:00 16.5 15 Sudeste 25 Sudeste 0 1013 1.9 84
2019-12-07 10:00:00 16.7 12 Sudeste 23 Sudeste 0 1012.3 1.6 84
2019-12-07 09:00:00 15.7 12 Sudeste 23 Sudeste 0 1012 1.6 86
2019-12-07 08:00:00 15.3 12 Este 26 Este 0 1011.1 0.8 87
2019-12-07 07:00:00 15.3 13 Este 28 Este 0 1010.7 0.4 88
2019-12-07 06:00:00 15.4 13 Este 25 Este 0 1010.4 0.1 88
2019-12-07 05:00:00 15.5 14 Este 27 Este 0 1010.3 -0.1 87
2019-12-07 04:00:00 15.5 16 Este 28 Sudeste 0 1010.3 -0.1 87
2019-12-07 03:00:00 15.5 18 Este 32 Este 0 1010.3 -0.3 88
2019-12-07 02:00:00 15.5 14 Este 31 Este 0 1010.4 0.1 88
2019-12-07 01:00:00 15.4 17 Sudeste 31 Sudeste 0 1010.4 0.4 87
2019-12-07 00:00:00 15.4 15 Este 28 Sudeste 0 1010.6 0.7 87
2019-12-06 23:00:00 15.4 15 Este 30 Sudeste 0 1010.3 0.9 87
2019-12-06 22:00:00 15.5 14 Este 29 Este 0 1010 1.3 88
2019-12-06 21:00:00 15.5 16 Este 30 Este 0 1009.9 1.6 88
2019-12-06 20:00:00 15.4 19 Este 28 Este 0 1009.4 1.5 88
2019-12-06 19:00:00 15.5 15 Este 26 Este 0 1008.7 1.2 89
2019-12-06 18:00:00 15.5 16 Este 29 Este 0 1008.3 0.9 88
2019-12-06 17:00:00 15.9 15 Este 33 Nordeste 0 1007.9 0.1 87
2019-12-06 16:00:00 16.3 19 Este 35 Este 0 1007.5 -1 86
2019-12-06 15:00:00 16.5 21 Este 39 Este 0 1007.4 -1.5 84
2019-12-06 14:00:00 16.6 21 Este 40 Este 0 1007.8 -1.2 84
2019-12-06 13:00:00 16.9 20 Este 37 Este 0 1008.5 0.4 84
2019-12-06 12:00:00 17.1 21 Este 38 Sudeste 0 1008.9 1.5 82
2019-12-06 11:00:00 16.1 23 Este 41 Este 0 1009 2.1 86
2019-12-06 10:00:00 16 17 Este 32 Este 0 1008.1 1.8 87
2019-12-06 09:00:00 15.3 17 Este 34 Este 0 1007.4 1.6 89
2019-12-06 08:00:00 15.1 16 Este 35 Este 0 1006.9 1.4 89
2019-12-06 07:00:00 15.2 17 Este 39 Este 0 1006.3 1 88
2019-12-06 06:00:00 15.4 23 Este 41 Este 0 1005.8 0.4 87
2019-12-06 05:00:00 15.4 18 Este 38 Este 0 1005.5 0.1 88
2019-12-06 04:00:00 15.3 22 Este 36 Este 0 1005.3 -0.3 89
2019-12-06 03:00:00 15.3 20 Este 40 Este 0 1005.4 -0.4 87
2019-12-06 02:00:00 15.3 21 Este 44 Este 0 1005.4 -0.4 86
2019-12-06 01:00:00 15.4 19 Este 44 Este 0 1005.6 0 84
2019-12-06 00:00:00 15.3 21 Este 40 Este 0 1005.8 0.6 83
2019-12-05 23:00:00 15.2 19 Este 40 Este 0 1005.8 1.1 81
2019-12-05 22:00:00 15.1 22 Este 38 Este 0 1005.6 1.7 83
2019-12-05 21:00:00 15.2 19 Este 35 Este 0 1005.2 1.8 83
2019-12-05 20:00:00 15.1 13 Este 31 Este 0 1004.7 1.7 81
2019-12-05 19:00:00 14.9 17 Este 27 Este 0 1003.9 1 83
2019-12-05 18:00:00 14.8 17 Este 30 Este 0 1003.4 0.8 80
2019-12-05 17:00:00 15 13 Este 24 Este 0 1003 0.3 80
2019-12-05 16:00:00 14.7 14 Este 27 Este 0 1002.9 -0.2 81
2019-12-05 15:00:00 14.5 17 Nordeste 30 Este 0 1002.6 -1.1 84
2019-12-05 14:00:00 14.8 9 Este 17 Este 0.8 1002.7 -0.5 85
2019-12-05 13:00:00 14.6 8 Este 13 Este 0 1003.1 0.1 86
2019-12-05 12:00:00 14.5 7 Este 12 Este 0 1003.7 1.5 86
2019-12-05 11:00:00 13.7 4 Sudoeste 17 Nordeste 0 1003.2 1.7 88
2019-12-05 10:00:00 12.8 7 Norte 13 Norte 0 1003 2 89
2019-12-05 09:00:00 11.8 8 Norte 14 Norte 0 1002.2 1.5 94
2019-12-05 08:00:00 11.5 5 Oeste 10 Sudoeste 0 1001.5 0.8 90
2019-12-05 07:00:00 11.7 8 Sur 12 Sur 0 1001 0 93
2019-12-05 06:00:00 11.6 7 Sudoeste 12 Sudoeste 0 1000.7 -0.1 94
2019-12-05 05:00:00 11.6 5 Sudoeste 12 Sudoeste 0.4 1000.7 0.1 94
2019-12-05 04:00:00 11.9 4 Sudoeste 7 Sudoeste 1 1001 0.4 94
2019-12-05 03:00:00 12.2 3 Sudoeste 8 Noroeste 0.2 1000.8 0.3 90
2019-12-05 02:00:00 12.5 3 Oeste 11 Norte 0.2 1000.6 0.1 89
2019-12-05 01:00:00 12.8 3 Sudoeste 6 Noroeste 0 1000.6 0.2 83
2019-12-05 00:00:00 12.9 2 Oeste 10 Oeste 0 1000.5 0.2 79
2019-12-04 23:00:00 13 5 Sudoeste 9 Sudoeste 0 1000.5 0.5 82
2019-12-04 22:00:00 13 3 Sudeste 12 Sudoeste 0 1000.4 0.9 80
2019-12-04 21:00:00 13 6 Sudoeste 13 Oeste 0.2 1000.3 1.5 78
2019-12-04 20:00:00 13.8 5 Sudoeste 10 Sur 0 1000 0.9 70
2019-12-04 19:00:00 13.8 3 Noroeste 17 Oeste 0 999.5 0.6 67
2019-12-04 18:00:00 14.1 9 Oeste 36 Sudoeste 0 998.8 0.3 64
2019-12-04 17:00:00 14.6 14 Oeste 35 Oeste 0 999.1 0 63
2019-12-04 16:00:00 15.4 12 Oeste 41 Noroeste 0 998.9 -1 57
2019-12-04 15:00:00 16.4 13 Oeste 37 Oeste 0 998.5 -1.9 60
2019-12-04 14:00:00 15.5 13 Oeste 38 Oeste 0 999.1 -1.6 68
2019-12-04 13:00:00 16.9 8 Oeste 26 Sur 0 999.9 -0.4 64
2019-12-04 12:00:00 15.1 10 Noroeste 36 Oeste 0 1000.4 0.8 74
2019-12-04 11:00:00 13.8 18 Noroeste 35 Noroeste 0 1000.7 1.7 81
2019-12-04 10:00:00 14.2 14 Noroeste 31 Oeste 0 1000.3 1 83
2019-12-04 09:00:00 13.5 6 Oeste 30 Sudoeste 3 999.6 0.9 90
2019-12-04 08:00:00 14.2 8 Oeste 22 Oeste 0 999 -0.4 83
2019-12-04 07:00:00 14.4 6 Sudoeste 26 Oeste 0 999.3 -0.5 80
2019-12-04 06:00:00 14.6 12 Oeste 41 Sudoeste 0 998.7 -1.8 79
2019-12-04 05:00:00 14.3 9 Sur 30 Sudoeste 0 999.4 -1.6 80
2019-12-04 04:00:00 14.6 10 Sudoeste 32 Oeste 0 999.8 -1.3 79
2019-12-04 03:00:00 14.7 9 Sudoeste 23 Sudoeste 0 1000.5 -0.5 80
2019-12-04 02:00:00 14.7 6 Sur 16 Sur 0 1001 0 78
2019-12-04 01:00:00 14.5 8 Noroeste 30 Noroeste 0 1001.1 0.3 82
2019-12-04 00:00:00 14.6 10 Oeste 22 Sur 0 1001 0.3 82
2019-12-03 23:00:00 14.4 4 Sudoeste 14 Sudoeste 0 1001 0.8 79
2019-12-03 22:00:00 14.2 6 Sudoeste 12 Oeste 0 1000.8 0.7 76
2019-12-03 21:00:00 14.3 4 Sudoeste 17 Sudoeste 0 1000.7 1.1 76
2019-12-03 20:00:00 14.6 8 Sudoeste 14 Sudoeste 0 1000.2 1.3 78
2019-12-03 19:00:00 14.3 4 Oeste 6 Sur 0 1000.1 2 82
2019-12-03 18:00:00 14.8 5 Sudoeste 9 Sudoeste 0 999.6 0.8 81
2019-12-03 17:00:00 15.4 6 Nordeste 9 Nordeste 0 998.9 -0.1 80
2019-12-03 16:00:00 15.3 4 Sudoeste 18 Sur 0 998.1 -1.6 82
2019-12-03 15:00:00 14.4 10 Sur 22 Sur 0 998.8 -0.6 84
2019-12-03 14:00:00 14 10 Sur 22 Sur 0 999 -0.3 87
2019-12-03 13:00:00 14 13 Sur 28 Sudeste 0 999.7 0.5 86
2019-12-03 12:00:00 15.2 8 Noroeste 18 Noroeste 0 999.4 0.4 73
2019-12-03 11:00:00 13.9 10 Oeste 30 Noroeste 0 999.3 0 82
2019-12-03 10:00:00 12.9 4 Noroeste 8 Noroeste 0 999.2 0.2 96
2019-12-03 09:00:00 12.7 4 Sudoeste 8 Oeste 0.2 999 -0.1 97
2019-12-03 08:00:00 12.9 3 Oeste 19 Nordeste 0.4 999.3 0.3 97
2019-12-03 07:00:00 12.9 11 Nordeste 32 Nordeste 0.8 999 -0.4 98
2019-12-03 06:00:00 12.6 24 Nordeste 36 Nordeste 2 999.1 -0.6 96
2019-12-03 05:00:00 13.7 5 Este 18 Este 0 999 -0.7 86
2019-12-03 04:00:00 14 10 Este 26 Este 0 999.4 -0.9 85
2019-12-03 03:00:00 14.3 14 Este 27 Este 0 999.7 -0.6 84
2019-12-03 02:00:00 14.3 11 Este 24 Este 0 999.7 -0.5 87
2019-12-03 01:00:00 14.4 15 Este 34 Este 0 1000.3 0 84
2019-12-03 00:00:00 14.7 17 Este 30 Este 0 1000.3 0.4 89
2019-12-02 23:00:00 14.6 15 Este 28 Nordeste 0 1000.2 0.6 90
2019-12-02 22:00:00 14.4 11 Este 27 Este 0 1000.3 0.9 91
2019-12-02 21:00:00 13.3 13 Nordeste 28 Nordeste 3.6 999.9 1.4 98
2019-12-02 20:00:00 12.1 8 Sudoeste 16 Sur 12.6 999.6 1.2 95
2019-12-02 19:00:00 12.8 13 Sudeste 27 Sudeste 1.8 999.4 1.3 92
2019-12-02 18:00:00 13.2 6 Norte 17 Norte 0 998.5 0.5 88
2019-12-02 17:00:00 12.7 10 Norte 27 Nordeste 0 998.4 -0.1 90
2019-12-02 16:00:00 12.4 13 Norte 27 Norte 0 998.1 -0.3 91
2019-12-02 15:00:00 12.4 15 Nordeste 30 Nordeste 1.4 998 -0.8 92
2019-12-02 14:00:00 11.6 10 Nordeste 23 Nordeste 7.2 998.5 -0.1 93
2019-12-02 13:00:00 12.7 10 Nordeste 24 Nordeste 1 998.4 -0.2 92
2019-12-02 12:00:00 15.4 9 Nordeste 15 Sur 0 998.8 0.9 85
2019-12-02 11:00:00 15.9 8 Sur 16 Sur 0 998.6 0.8 76
2019-12-02 10:00:00 12.4 4 Sudoeste 7 Oeste 0.2 998.6 1.2 92
2019-12-02 09:00:00 12.2 4 Oeste 9 Sudoeste 0.2 997.9 0.1 92
2019-12-02 08:00:00 11.9 7 Sudoeste 11 Sur 0 997.8 -0.3 89
2019-12-02 07:00:00 11.9 5 Sudoeste 12 Sudoeste 0 997.4 -0.9 90
2019-12-02 06:00:00 12.4 8 Sudoeste 13 Sudoeste 0 997.8 -0.9 91
2019-12-02 05:00:00 12.9 8 Sudoeste 16 Sudoeste 0.6 998.1 -1.1 89
2019-12-02 04:00:00 12.6 5 Sudoeste 12 Sudoeste 0 998.3 -1.3 88
2019-12-02 03:00:00 13.2 4 Oeste 20 Noroeste 0 998.7 -1.6 87
2019-12-02 02:00:00 13.5 5 Sudoeste 14 Sudoeste 0.6 999.2 -1.4 88
2019-12-02 01:00:00 14 9 Sudoeste 18 Noroeste 0.8 999.6 -1.4 86
2019-12-02 00:00:00 13.8 6 Sur 19 Sur 0 1000.3 -0.8 85
2019-12-01 23:00:00 14.2 8 Sudoeste 23 Oeste 0 1000.6 -0.9 84
2019-12-01 22:00:00 14.2 8 Sudoeste 23 Oeste 0 1001 -0.5 85
2019-12-01 21:00:00 14 9 Sudoeste 24 Oeste 0.2 1001.1 -0.3 83
2019-12-01 20:00:00 14.3 12 Oeste 42 Noroeste 0.6 1001.5 -0.3 82
2019-12-01 19:00:00 14.1 14 Oeste 45 Oeste 0.6 1001.5 -0.5 86
2019-12-01 18:00:00 14.9 15 Oeste 43 Oeste 2 1001.4 -1.4 83
2019-12-01 17:00:00 15.9 8 Sudoeste 24 Sudoeste 0.4 1001.8 -1.9 79
2019-12-01 16:00:00 17.7 9 Sudoeste 25 Oeste 0 1002 -2.5 70
2019-12-01 15:00:00 17.5 10 Sudoeste 27 Noroeste 0 1002.8 -2.8 71
2019-12-01 14:00:00 16.6 9 Oeste 24 Sudoeste 0 1003.7 -2.3 74
2019-12-01 13:00:00 15.8 9 Sudoeste 21 Sudoeste 0 1004.5 -1.3 77
2019-12-01 12:00:00 14.7 6 Noroeste 19 Oeste 0 1005.6 -0.1 79
2019-12-01 11:00:00 14.2 7 Sudoeste 21 Noroeste 0.2 1006 0.2 86
2019-12-01 10:00:00 13.8 4 Sur 22 Noroeste 1.4 1005.8 0.3 95
2019-12-01 09:00:00 13.7 8 Oeste 37 Noroeste 1 1005.7 0.1 91
2019-12-01 08:00:00 13.6 9 Noroeste 21 Noroeste 0.6 1005.8 0.1 95
2019-12-01 07:00:00 13.9 14 Noroeste 30 Noroeste 1 1005.5 -0.9 92
2019-12-01 06:00:00 15.2 11 Oeste 27 Noroeste 1 1005.6 -1.6 89
2019-12-01 05:00:00 16.2 8 Sudoeste 24 Sudoeste 0 1005.7 -2 77
2019-12-01 04:00:00 16 7 Sur 28 Oeste 0 1006.4 -1.9 78
2019-12-01 03:00:00 16.7 13 Sudoeste 31 Oeste 0 1007.2 -1.7 77
2019-12-01 02:00:00 16.4 8 Sudoeste 23 Sudoeste 0 1007.7 -1.7 74
2019-12-01 01:00:00 15.9 5 Sur 19 Sur 0 1008.3 -1.3 71
2019-12-01 00:00:00 15.9 6 Sur 15 Sudoeste 0 1008.9 -0.8 75
2019-11-30 23:00:00 15.9 7 Sur 19 Noroeste 0 1009.4 -0.3 78
2019-11-30 22:00:00 16.5 6 Sur 17 Nordeste 0 1009.6 0.3 67
2019-11-30 21:00:00 16.7 6 Sudeste 28 Nordeste 0 1009.7 0.6 66
2019-11-30 20:00:00 16.4 13 Noroeste 30 Norte 0 1009.7 0.7 70
2019-11-30 19:00:00 16.8 10 Noroeste 28 Noroeste 0 1009.3 0 73
2019-11-30 18:00:00 17.8 5 Oeste 19 Oeste 0 1009.1 -0.5 66
2019-11-30 17:00:00 19.5 7 Sudoeste 19 Oeste 0 1009 -1.3 57
2019-11-30 16:00:00 20.6 9 Oeste 25 Oeste 0 1009.3 -1.8 54
2019-11-30 15:00:00 21.2 8 Sudoeste 30 Sudoeste 0 1009.6 -2.3 52
2019-11-30 14:00:00 20 10 Sudoeste 28 Oeste 0 1010.3 -1.7 56
2019-11-30 13:00:00 20.3 5 Oeste 13 Oeste 0 1011.1 -0.6 59
2019-11-30 12:00:00 18.3 6 Sur 13 Sur 0 1011.9 0.7 78
2019-11-30 11:00:00 17.7 11 Sur 15 Sur 0 1012 1.1 75
2019-11-30 10:00:00 17.2 5 Este 6 Este 0 1011.7 1.3 77
2019-11-30 09:00:00 14.9 2 Oeste 5 Noroeste 0 1011.2 0.9 85
2019-11-30 08:00:00 14 4 Noroeste 6 Noroeste 0 1010.9 0.3 86
2019-11-30 07:00:00 14.4 4 Sur 6 Sur 0 1010.4 -0.2 84
2019-11-30 06:00:00 14.2 0 Calma 6 Oeste 0 1010.3 -0.3 82
2019-11-30 05:00:00 14.7 3 Noroeste 9 Sur 0 1010.6 -0.1 80
2019-11-30 04:00:00 15.6 6 Sudoeste 11 Sudoeste 0 1010.6 -0.2 75
2019-11-30 03:00:00 16.4 6 Sudoeste 8 Sudoeste 0 1010.6 -0.2 68
2019-11-30 02:00:00 15.5 2 Noroeste 7 Norte 0 1010.7 -0.1 77
2019-11-30 01:00:00 16 4 Noroeste 9 Sudoeste 0 1010.8 0 71
2019-11-30 00:00:00 16.7 5 Sudoeste 9 Sur 0 1010.8 0.1 69
2019-11-29 23:00:00 16.5 3 Sudoeste 5 Sudoeste 0 1010.8 0.5 69
2019-11-29 22:00:00 16.8 4 Noroeste 6 Norte 0 1010.8 0.7 66
2019-11-29 21:00:00 17.3 2 Noroeste 5 Oeste 0 1010.7 0.8 63
2019-11-29 20:00:00 17.7 5 Sur 8 Sudoeste 0 1010.3 0.6 62
2019-11-29 19:00:00 17.8 6 Oeste 9 Sudoeste 0 1010.1 0.7 63
2019-11-29 18:00:00 19 5 Oeste 8 Sudoeste 0 1009.9 0.3 61
2019-11-29 17:00:00 21.6 4 Sur 8 Sur 0 1009.7 -0.4 51
2019-11-29 16:00:00 21.7 5 Este 10 Este 0 1009.4 -1.2 50
2019-11-29 15:00:00 22.4 6 Sudeste 11 Este 0 1009.6 -1.5 48
2019-11-29 14:00:00 22.5 7 Este 14 Nordeste 0 1010.1 -0.8 48
2019-11-29 13:00:00 23.2 4 Oeste 13 Sudoeste 0 1010.6 0 45
2019-11-29 12:00:00 22.2 6 Oeste 13 Oeste 0 1011.1 1 47
2019-11-29 11:00:00 20.9 5 Sudoeste 17 Oeste 0 1010.9 1.1 52
2019-11-29 10:00:00 18.7 6 Sudoeste 14 Oeste 0 1010.6 1.2 58
2019-11-29 09:00:00 16.7 4 Sudoeste 14 Oeste 0 1010.1 0.9 65
2019-11-29 08:00:00 15.2 7 Sudoeste 12 Sudoeste 0 1009.8 0.7 71
2019-11-29 07:00:00 14.9 4 Oeste 9 Sudoeste 0 1009.4 0 74
2019-11-29 06:00:00 15.3 5 Sudoeste 21 Norte 0 1009.2 -0.3 74
2019-11-29 05:00:00 15.8 9 Oeste 25 Oeste 0 1009.1 -0.2 69
2019-11-29 04:00:00 14.8 7 Oeste 15 Oeste 0 1009.4 -0.1 79
2019-11-29 03:00:00 15.4 6 Oeste 28 Noroeste 0 1009.5 0 74
2019-11-29 02:00:00 16.3 14 Noroeste 26 Noroeste 0 1009.3 -0.4 66
2019-11-29 01:00:00 15.4 8 Sur 13 Sur 0 1009.5 0 71
2019-11-29 00:00:00 15.6 8 Sudoeste 11 Sur 0 1009.5 0.5 76
2019-11-28 23:00:00 16 3 Sudoeste 23 Noroeste 0 1009.7 1.3 74
2019-11-28 22:00:00 16.6 15 Noroeste 36 Oeste 0 1009.5 1.2 70
2019-11-28 21:00:00 16.9 17 Noroeste 42 Noroeste 0 1009 1 73
2019-11-28 20:00:00 17.1 21 Noroeste 40 Noroeste 0 1008.4 0.2 70
2019-11-28 19:00:00 17.2 17 Noroeste 35 Oeste 0 1008.3 0.2 70
2019-11-28 18:00:00 17.8 13 Noroeste 31 Noroeste 0 1008 -0.1 67
2019-11-28 17:00:00 19.6 4 Noroeste 14 Sur 0 1008.2 -0.6 59
2019-11-28 16:00:00 20.2 6 Noroeste 19 Noroeste 0 1008.1 -1.3 59
2019-11-28 15:00:00 20.4 6 Oeste 16 Oeste 0 1008.1 -2 62
2019-11-28 14:00:00 20.6 7 Sudoeste 15 Sudoeste 0 1008.8 -1.4 62
2019-11-28 13:00:00 20 7 Sudoeste 18 Sudoeste 0 1009.4 -0.3 66
2019-11-28 12:00:00 19.8 5 Sudoeste 14 Sudoeste 0 1010.1 1 65
2019-11-28 11:00:00 18.6 3 Nordeste 7 Nordeste 0 1010.2 1.5 73
2019-11-28 10:00:00 17.2 4 Nordeste 7 Oeste 0 1009.7 1.6 79
2019-11-28 09:00:00 15.1 5 Sudoeste 11 Oeste 0 1009.1 1.3 88
2019-11-28 08:00:00 13.9 3 Oeste 10 Oeste 0 1008.7 0.9 91
2019-11-28 07:00:00 13.9 4 Sudoeste 9 Oeste 0 1008.1 0.2 92
2019-11-28 06:00:00 14.3 2 Sudoeste 9 Sudoeste 0 1007.8 -0.1 90
2019-11-28 05:00:00 14.8 4 Norte 18 Noroeste 0 1007.8 -0.2 90
2019-11-28 04:00:00 14.7 5 Noroeste 17 Noroeste 0 1007.9 -0.4 91
2019-11-28 03:00:00 14.7 4 Oeste 9 Sudoeste 0 1007.9 -0.6 87
2019-11-28 02:00:00 15.5 5 Oeste 16 Oeste 0 1008 -0.4 83
2019-11-28 01:00:00 15.9 6 Sudoeste 17 Oeste 0 1008.3 0.4 85
2019-11-28 00:00:00 16.5 8 Sudoeste 20 Sudoeste 0 1008.5 0.9 80
2019-11-27 23:00:00 16.2 6 Sudoeste 19 Sudoeste 0 1008.4 1.2 83
2019-11-27 22:00:00 16.2 5 Oeste 14 Oeste 0 1007.9 1.2 87
2019-11-27 21:00:00 16.3 4 Sur 11 Noroeste 0 1007.6 1.2 88
2019-11-27 20:00:00 16.3 5 Sur 10 Sudoeste 0 1007.2 1.1 89
2019-11-27 19:00:00 16.5 4 Sudoeste 21 Oeste 0 1006.7 0.9 89
2019-11-27 18:00:00 16.6 5 Sudoeste 18 Oeste 0.6 1006.4 0.4 92
2019-11-27 17:00:00 17.2 7 Sudoeste 19 Sudoeste 0 1006.1 -0.3 87
2019-11-27 16:00:00 17.4 7 Sudoeste 17 Sudoeste 0 1005.8 -1.2 87
2019-11-27 15:00:00 17.9 7 Oeste 16 Noroeste 0 1006 -1.7 82
2019-11-27 14:00:00 18.1 9 Oeste 25 Sudoeste 0 1006.4 -1.2 82
2019-11-27 06:00:00 17.7 12 Sudoeste 43 Oeste 0 1004 -1.1 75
2019-11-27 05:00:00 17.4 11 Sudoeste 35 Oeste 0 1004.1 -1.2 77
2019-11-27 04:00:00 17.6 13 Sudoeste 35 Noroeste 0 1004.9 -1 76
2019-11-27 03:00:00 17.5 12 Sur 34 Oeste 0 1005.1 -1.2 76
2019-11-27 02:00:00 17.5 10 Sudoeste 30 Sudoeste 0 1005.3 -0.8 79
2019-11-27 01:00:00 17.6 16 Sur 36 Sur 0 1005.9 -0.5 79
2019-11-27 00:00:00 18.1 10 Sur 31 Sudoeste 0 1006.3 -0.1 74
2019-11-26 23:00:00 18 8 Sur 31 Sur 0 1006.1 0 75
2019-11-26 22:00:00 18.1 6 Sudoeste 28 Sudoeste 0 1006.4 0.7 81
2019-11-26 21:00:00 18.3 12 Oeste 33 Sur 0 1006.4 0.9 78
2019-11-26 20:00:00 18.4 12 Sudoeste 36 Sudoeste 0 1006.1 0.8 80
2019-11-26 19:00:00 18.5 10 Sudoeste 33 Sudoeste 0 1005.7 0.6 80
2019-11-26 18:00:00 18.9 8 Sudoeste 23 Sudoeste 0 1005.5 0.3 78
2019-11-26 17:00:00 20 7 Oeste 33 Sudoeste 0 1005.3 -0.4 71
2019-11-26 16:00:00 20.7 10 Oeste 23 Sudoeste 0 1005.1 -1.4 69
2019-11-26 15:00:00 20.4 6 Noroeste 21 Sudoeste 0 1005.2 -2.1 74
2019-11-26 14:00:00 20 7 Oeste 19 Noroeste 0 1005.7 -2.1 76
2019-11-26 13:00:00 19.7 8 Oeste 20 Sudoeste 0 1006.5 -1.1 80
2019-11-26 12:00:00 19.4 8 Oeste 19 Oeste 0 1007.3 -0.1 83
2019-11-26 11:00:00 18.5 3 Sur 9 Sur 0 1007.8 0.9 88
2019-11-26 10:00:00 17.9 5 Este 11 Oeste 0 1007.6 0.9 91
2019-11-26 09:00:00 17.5 3 Oeste 14 Sudoeste 0 1007.4 0.5 91
2019-11-26 08:00:00 17.6 6 Sudoeste 14 Sudoeste 0 1006.9 -0.1 90
2019-11-26 07:00:00 17.7 7 Sudoeste 14 Sudoeste 0 1006.7 -0.8 89
2019-11-26 06:00:00 17.7 5 Sudoeste 12 Oeste 0 1006.9 -0.5 89
2019-11-26 05:00:00 17.7 5 Sur 13 Sudoeste 0 1007 -0.7 91
2019-11-26 04:00:00 18.1 5 Sudoeste 19 Sudoeste 0 1007.5 -0.8 86
2019-11-26 03:00:00 18.3 8 Sudoeste 16 Oeste 0 1007.4 -1.2 84
2019-11-26 02:00:00 18.1 7 Sudoeste 18 Oeste 0 1007.7 -1 83
2019-11-26 01:00:00 17.9 9 Oeste 25 Oeste 0 1008.3 -0.4 84
2019-11-26 00:00:00 17.3 7 Sudoeste 20 Oeste 0 1008.6 -0.1 83
2019-11-25 23:00:00 17.7 10 Oeste 27 Sudoeste 0 1008.7 0.4 82
2019-11-25 22:00:00 17.9 8 Sudoeste 20 Sudoeste 0 1008.7 0.4 79
2019-11-25 21:00:00 17.5 5 Noroeste 24 Oeste 0 1008.7 0.8 80
2019-11-25 20:00:00 17.5 7 Sudoeste 22 Oeste 0 1008.3 0.5 76
2019-11-25 19:00:00 17.6 5 Sudoeste 14 Sudoeste 0 1008.3 0.6 76
2019-11-25 18:00:00 18.3 5 Sudeste 23 Sudoeste 0 1007.9 0 72
2019-11-25 17:00:00 19.6 5 Oeste 24 Sur 0 1007.8 -0.2 66
2019-11-25 16:00:00 20 10 Sudoeste 27 Oeste 0 1007.7 -0.6 64
2019-11-25 15:00:00 20.5 6 Sudeste 26 Noroeste 0 1007.9 -1.5 62
2019-11-25 14:00:00 20.6 10 Sudoeste 26 Noroeste 0 1008 -1.7 62
2019-11-25 13:00:00 20 14 Oeste 31 Oeste 0 1008.3 -1.1 66
2019-11-25 12:00:00 19.1 10 Sudoeste 27 Sudoeste 0 1009.4 0.3 67
2019-11-25 11:00:00 19.7 6 Sur 29 Noroeste 0 1009.7 1 64
2019-11-25 10:00:00 18.9 8 Este 32 Norte 0 1009.4 1.1 66
2019-11-25 09:00:00 16.5 8 Sur 23 Sur 0 1009.1 1.1 73
2019-11-25 08:00:00 15.6 8 Sudoeste 28 Oeste 0 1008.7 0.6 76
2019-11-25 07:00:00 15.5 8 Sudoeste 23 Sur 0 1008.3 -0.1 77
2019-11-25 06:00:00 15.1 6 Sur 19 Sur 0 1008 -0.6 78
2019-11-25 05:00:00 15.1 5 Sudeste 17 Noroeste 0 1008.1 -0.6 76
2019-11-25 04:00:00 15.3 4 Sudoeste 25 Noroeste 0 1008.4 -1 76
2019-11-25 03:00:00 14.9 8 Sudoeste 20 Sudoeste 0 1008.6 -0.7 76
2019-11-25 02:00:00 14.3 7 Sudoeste 17 Sur 0 1008.7 -0.7 76
2019-11-25 01:00:00 13.9 4 Sudoeste 12 Sudoeste 0 1009.4 -0.3 77
2019-11-25 00:00:00 13.8 5 Sudoeste 12 Sudoeste 0 1009.3 -0.2 76
2019-11-24 23:00:00 13.4 3 Sur 15 Noroeste 0 1009.4 0.2 77
2019-11-24 22:00:00 13.9 6 Sur 15 Sudoeste 0 1009.7 1.2 75
2019-11-24 21:00:00 14.3 6 Oeste 21 Noroeste 0 1009.5 1.5 71
2019-11-24 20:00:00 14.6 12 Noroeste 31 Noroeste 0 1009.2 1.4 71
2019-11-24 19:00:00 14.2 7 Oeste 18 Oeste 0 1008.5 0.9 71
2019-11-24 18:00:00 14.9 7 Sudoeste 18 Oeste 0 1008 0.2 67
2019-11-24 17:00:00 16.3 6 Oeste 21 Noroeste 0 1007.8 -0.2 60
2019-11-24 16:00:00 16.8 9 Oeste 27 Sudoeste 0 1007.6 -0.8 58
2019-11-24 15:00:00 16.9 13 Sudoeste 32 Oeste 0 1007.8 -1.3 54
2019-11-24 14:00:00 17 12 Sudoeste 29 Oeste 0 1008 -1.6 56
2019-11-24 13:00:00 16.6 12 Sudoeste 30 Sudoeste 0 1008.4 -0.5 54
2019-11-24 12:00:00 16.3 11 Oeste 30 Sudoeste 0 1009.1 0.6 57
2019-11-24 11:00:00 16.4 5 Oeste 16 Oeste 0 1009.6 1.7 57
2019-11-24 10:00:00 14.8 7 Oeste 27 Noroeste 0 1008.9 2 59
2019-11-24 09:00:00 13.8 4 Oeste 22 Oeste 0 1008.5 2.1 65
2019-11-24 08:00:00 12.3 4 Oeste 13 Noroeste 0 1007.9 1.5 75
2019-11-24 07:00:00 12.3 6 Oeste 24 Noroeste 0 1006.9 0.4 75
2019-11-24 06:00:00 12.5 6 Oeste 14 Sudoeste 0 1006.4 0.2 75
2019-11-24 05:00:00 12.6 5 Oeste 19 Oeste 0 1006.4 0.1 73
2019-11-24 04:00:00 12.7 6 Sudoeste 19 Noroeste 0 1006.5 0.3 76
2019-11-24 03:00:00 13.6 10 Noroeste 22 Oeste 0 1006.2 0 66
2019-11-24 02:00:00 14 11 Noroeste 24 Norte 0 1006.3 0.2 66
2019-11-24 01:00:00 14.3 9 Noroeste 28 Noroeste 0 1006.2 0.6 74
2019-11-24 00:00:00 14.9 10 Oeste 26 Oeste 0 1006.2 0.7 69
2019-11-23 23:00:00 14.9 9 Oeste 26 Oeste 0 1006.1 1.3 70
2019-11-23 22:00:00 14.8 7 Oeste 28 Noroeste 0 1005.6 1.5 71
2019-11-23 21:00:00 14.8 8 Oeste 25 Noroeste 0 1005.5 2.3 71
2019-11-23 20:00:00 14.8 11 Oeste 29 Noroeste 0 1004.8 2.9 69
2019-11-23 19:00:00 14.6 3 Sudoeste 23 Oeste 0 1004.1 2.8 69
2019-11-23 18:00:00 14.7 5 Sur 34 Noroeste 0 1003.2 2 66
2019-11-23 17:00:00 15.4 13 Noroeste 49 Sudoeste 0 1001.9 0.7 63
2019-11-23 16:00:00 16.1 14 Oeste 41 Oeste 0 1001.3 0.1 57
2019-11-23 15:00:00 16.3 11 Noroeste 39 Noroeste 0 1001.2 0 61
2019-11-23 14:00:00 16 14 Oeste 47 Noroeste 0 1001.2 1 69
2019-11-23 13:00:00 16.1 19 Noroeste 46 Noroeste 0 1001.2 1.6 71
2019-11-23 12:00:00 15.9 15 Noroeste 51 Noroeste 0 1001.2 2.9 72
2019-11-23 11:00:00 15.4 27 Noroeste 55 Noroeste 0.2 1000.2 3.2 71
2019-11-23 10:00:00 14.2 14 Noroeste 53 Noroeste 0 999.6 3.4 80
2019-11-23 09:00:00 12.8 22 Noroeste 59 Noroeste 2.6 998.3 2.7 86
2019-11-23 08:00:00 14.2 26 Noroeste 64 Noroeste 0.6 997 1.8 86
2019-11-23 07:00:00 16.4 12 Oeste 63 Oeste 0 996.2 1.3 69
2019-11-23 06:00:00 16.7 25 Oeste 57 Noroeste 0 995.6 1 65
2019-11-23 05:00:00 16.6 19 Oeste 49 Oeste 0 995.2 1.4 72
2019-11-23 04:00:00 16.7 22 Oeste 65 Noroeste 0 994.9 0.7 69
2019-11-23 03:00:00 16.7 22 Oeste 70 Noroeste 0 994.6 1.3 69
2019-11-23 02:00:00 16.9 24 Noroeste 67 Noroeste 0 993.8 0.3 73
2019-11-23 01:00:00 17 26 Noroeste 77 Noroeste 0 994.2 0.4 69
2019-11-23 00:00:00 16.8 26 Noroeste 73 Noroeste 0.4 993.3 1 82
2019-11-22 23:00:00 15.1 33 Noroeste 66 Noroeste 3.4 993.5 2 87
2019-11-22 22:00:00 15.2 35 Noroeste 78 Noroeste 13.8 993.8 2.4 91
2019-11-22 21:00:00 18.6 20 Sudoeste 70 Sudoeste 3 992.3 0.5 89
2019-11-22 20:00:00 19 24 Sudoeste 59 Oeste 1.4 991.5 -0.1 86
2019-11-22 19:00:00 19.3 27 Oeste 62 Noroeste 0.4 991.4 -0.6 80
2019-11-22 18:00:00 19 21 Sudoeste 56 Oeste 0.6 991.8 -0.6 84
2019-11-22 17:00:00 19.4 14 Oeste 57 Sudoeste 0 991.6 -1.7 78
2019-11-22 16:00:00 19.5 13 Sudoeste 52 Sudoeste 0 992 -2.7 81
2019-11-22 15:00:00 18.8 22 Sudoeste 54 Sudoeste 0 992.4 -3.4 81
2019-11-22 14:00:00 18.9 22 Sudoeste 51 Sudoeste 0 993.3 -3.2 77
2019-11-22 13:00:00 18.1 17 Sudoeste 41 Sudoeste 0 994.7 -1.7 82
2019-11-22 12:00:00 17.1 19 Sudoeste 41 Sudoeste 0.2 995.8 -0.8 85
2019-11-22 11:00:00 16.4 19 Sudoeste 43 Sudoeste 0.2 996.5 0.6 85
2019-11-22 10:00:00 16 17 Sudoeste 41 Sur 0.8 996.4 0.3 90
2019-11-22 09:00:00 16.3 18 Sudoeste 33 Sudoeste 1.8 996.6 0.4 87
2019-11-22 08:00:00 16.8 16 Sudoeste 34 Sudoeste 0 995.9 -1 83
2019-11-22 07:00:00 16.8 17 Sudoeste 43 Sur 0 996.1 -1.1 82
2019-11-22 06:00:00 15.9 15 Sudoeste 34 Sudoeste 0.8 996.2 -1.5 87
2019-11-22 05:00:00 15.2 17 Sudoeste 44 Sudoeste 2 996.9 -1.2 89
2019-11-22 04:00:00 15.7 20 Sudoeste 45 Sudoeste 0 997.2 -1.7 83
2019-11-22 03:00:00 15.4 17 Sudoeste 36 Sur 0.8 997.7 -1.9 86
2019-11-22 02:00:00 15.4 15 Sudoeste 36 Sudoeste 0 998.1 -1.8 86
2019-11-22 01:00:00 15.2 13 Sudoeste 28 Sudoeste 0 998.9 -1.2 88
2019-11-22 00:00:00 15.6 14 Sudoeste 31 Sudoeste 0.4 999.6 -0.3 87
2019-11-21 23:00:00 15.7 14 Sudoeste 29 Sudoeste 0 999.9 0.3 85
2019-11-21 22:00:00 15.7 13 Sudoeste 28 Sur 0 1000.1 0.5 84
2019-11-21 21:00:00 15.7 10 Sudoeste 25 Sudoeste 0 999.9 0.9 84
2019-11-21 20:00:00 15.5 13 Sudoeste 34 Sudoeste 0 999.6 0.2 85
2019-11-21 19:00:00 15.7 14 Sudoeste 28 Sudoeste 0 999.6 0.6 85
2019-11-21 18:00:00 15.4 15 Sudoeste 31 Sudoeste 5.2 999 -0.2 89
2019-11-21 17:00:00 15.6 12 Sudoeste 29 Sur 2.6 999.4 -0.1 87
2019-11-21 16:00:00 16.3 14 Sudoeste 30 Sudoeste 0.8 999 -1.4 84
2019-11-21 15:00:00 18.1 10 Sudoeste 32 Sudoeste 0 999.2 -2.1 73
2019-11-21 14:00:00 19.6 16 Sudoeste 38 Sudoeste 0 999.5 -1.7 66
2019-11-21 13:00:00 17.7 13 Sudoeste 25 Sur 0 1000.4 -0.8 75
2019-11-21 12:00:00 17 10 Sudoeste 26 Sudoeste 0 1001.3 0.6 76
2019-11-21 11:00:00 16.5 12 Sudoeste 26 Sur 0 1001.2 0.4 78
2019-11-21 10:00:00 15.6 12 Sudoeste 30 Sudoeste 0.6 1001.2 0.7 80
2019-11-21 09:00:00 15.2 14 Sudoeste 31 Sudoeste 0.6 1000.7 0.2 81
2019-11-21 08:00:00 14.3 16 Sudoeste 35 Sudoeste 0.6 1000.8 0.1 85
2019-11-21 07:00:00 14.9 14 Sudoeste 38 Sur 0 1000.5 -0.3 82
2019-11-21 06:00:00 14.5 12 Sudoeste 32 Sur 0.4 1000.5 -0.7 85
2019-11-21 05:00:00 14.9 14 Sudoeste 32 Sudoeste 0 1000.7 -0.7 82
2019-11-21 04:00:00 15.2 10 Sudoeste 32 Sudoeste 0 1000.8 -1.2 78
2019-11-21 03:00:00 14.7 9 Sudoeste 19 Sudoeste 0 1001.2 -1.2 77
2019-11-21 02:00:00 14.6 8 Sudoeste 23 Oeste 0 1001.4 -1.1 76
2019-11-21 01:00:00 14.3 8 Sudoeste 20 Sudoeste 0 1002 -0.2 81
2019-11-21 00:00:00 13.8 5 Sudoeste 18 Sudoeste 0 1002.4 0.5 85
2019-11-20 23:00:00 13.1 8 Oeste 15 Sudoeste 0 1002.5 1 88
2019-11-20 22:00:00 12.3 3 Sudeste 10 Este 0 1002.2 0.9 94
2019-11-20 21:00:00 12.3 3 Este 8 Sur 0 1001.9 1 95
2019-11-20 20:00:00 12.4 4 Sur 11 Sur 0.2 1001.5 0.7 95
2019-11-20 19:00:00 12.2 5 Sur 14 Sur 0 1001.3 0.7 94
2019-11-20 18:00:00 12.3 4 Sur 23 Sur 3.8 1000.9 -0.6 93
2019-11-20 17:00:00 12.3 10 Sur 31 Sur 2.6 1000.8 -1.5 94
2019-11-20 16:00:00 12.9 10 Sur 19 Sur 3.2 1000.6 -1.7 88
2019-11-20 15:00:00 12.7 7 Sudoeste 20 Sudoeste 3.8 1001.5 -1.8 87
2019-11-20 14:00:00 13.2 6 Sudoeste 16 Sudoeste 3.6 1002.3 -1.3 85
2019-11-20 13:00:00 14.8 9 Sur 17 Sur 0.4 1002.3 -0.8 74
2019-11-20 12:00:00 16 9 Sur 16 Sur 0 1003.3 0.3 62
2019-11-20 11:00:00 14.8 5 Sur 10 Sur 0 1003.6 0.6 66
2019-11-20 10:00:00 14.4 3 Sudoeste 14 Sudoeste 0 1003.1 0.1 69
2019-11-20 09:00:00 13.9 5 Sudoeste 15 Sudoeste 0 1003 -0.2 69
2019-11-20 08:00:00 12.9 6 Sudoeste 12 Sudoeste 0 1003 -0.4 75
2019-11-20 07:00:00 12.1 4 Oeste 7 Oeste 0 1003 -0.8 81
2019-11-20 06:00:00 12.1 4 Oeste 9 Sudoeste 0 1003.2 -0.9 83
2019-11-20 05:00:00 12 7 Oeste 9 Oeste 0 1003.4 -1 82
2019-11-20 04:00:00 12.5 5 Sudoeste 13 Oeste 0 1003.8 -1 81
2019-11-20 03:00:00 13 6 Sudoeste 16 Oeste 0 1004.1 -0.9 78
2019-11-20 02:00:00 12.7 5 Sudoeste 10 Oeste 0 1004.4 -1 79
2019-11-20 01:00:00 13.1 4 Sudoeste 11 Sur 0 1004.8 -0.8 77
2019-11-20 00:00:00 13 5 Oeste 10 Sur 0 1005 -0.7 78
2019-11-19 23:00:00 13.8 4 Sur 8 Sur 0 1005.4 -0.4 74
2019-11-19 22:00:00 14 5 Sur 9 Sur 0 1005.6 -0.2 75
2019-11-19 21:00:00 14 3 Oeste 6 Sudeste 0 1005.7 0 76
2019-11-19 20:00:00 14 3 Sudoeste 7 Oeste 0 1005.8 0.1 75
2019-11-19 19:00:00 14.1 4 Sudoeste 5 Sudoeste 0 1005.8 0 73
2019-11-19 18:00:00 14.9 3 Oeste 18 Noroeste 0 1005.7 -0.4 71
2019-11-19 17:00:00 15.4 11 Noroeste 20 Noroeste 0 1005.7 -1 66
2019-11-19 16:00:00 17.5 6 Oeste 18 Noroeste 0 1005.8 -1.6 53
2019-11-19 15:00:00 18.2 6 Oeste 17 Noroeste 0 1006.1 -2.2 49
2019-11-19 14:00:00 17.8 6 Oeste 21 Noroeste 0 1006.7 -2.1 52
2019-11-19 13:00:00 16.9 13 Noroeste 25 Noroeste 0 1007.4 -1.4 55
2019-11-19 12:00:00 17.4 5 Sudeste 17 Este 0 1008.3 -0.3 55
2019-11-19 11:00:00 16.8 3 Sudeste 14 Norte 0 1008.8 0.6 56
2019-11-19 10:00:00 15.4 4 Sudoeste 13 Oeste 0 1008.8 0.8 62
2019-11-19 09:00:00 12.5 4 Sudoeste 13 Sudoeste 0 1008.6 0.9 72
2019-11-19 08:00:00 12.2 6 Sudoeste 17 Sudoeste 0 1008.2 0.7 72
2019-11-19 07:00:00 12.1 7 Oeste 18 Oeste 0 1008 0.5 73
2019-11-19 06:00:00 12.3 9 Oeste 22 Sudoeste 0 1007.7 0.4 72
2019-11-19 05:00:00 12.5 8 Oeste 17 Oeste 0 1007.5 0.1 71
2019-11-19 04:00:00 12.2 9 Sur 28 Noroeste 0 1007.5 -0.3 73
2019-11-19 03:00:00 13.3 10 Oeste 28 Oeste 0 1007.3 -0.9 67
2019-11-19 02:00:00 13.1 10 Oeste 24 Sudoeste 0 1007.4 -0.9 69
2019-11-19 01:00:00 13.3 9 Oeste 28 Oeste 0 1007.8 -0.4 67
2019-11-19 00:00:00 13 9 Oeste 23 Noroeste 0 1008.2 0.8 69
2019-11-18 23:00:00 12.9 10 Oeste 31 Noroeste 0 1008.3 1.2 69
2019-11-18 22:00:00 12.7 12 Oeste 32 Noroeste 0 1008.2 2.1 73
2019-11-18 21:00:00 12.6 11 Oeste 33 Noroeste 0 1007.4 1.6 72
2019-11-18 20:00:00 12.5 12 Oeste 30 Oeste 0 1007.1 1.8 75
2019-11-18 19:00:00 12.8 12 Oeste 38 Oeste 0 1006.1 1.1 71
2019-11-18 18:00:00 13.1 12 Oeste 44 Noroeste 0 1005.8 0.6 66
2019-11-18 17:00:00 14 14 Oeste 36 Noroeste 0 1005.3 0.2 64
2019-11-18 16:00:00 15 12 Oeste 36 Noroeste 0 1005 0.1 60
2019-11-18 15:00:00 16.2 8 Oeste 23 Oeste 0 1005.2 -0.6 57
2019-11-18 14:00:00 15.4 12 Noroeste 29 Oeste 0 1005.1 -0.8 58
2019-11-18 13:00:00 15.2 13 Oeste 38 Noroeste 0 1004.9 -0.4 59
2019-11-18 12:00:00 15.3 18 Noroeste 44 Noroeste 0 1005.8 1.6 50
2019-11-18 11:00:00 13.8 20 Noroeste 48 Noroeste 0 1005.9 2.7 59
2019-11-18 10:00:00 13.2 15 Noroeste 49 Oeste 0 1005.3 3.1 60
2019-11-18 09:00:00 11.3 24 Noroeste 55 Noroeste 0 1004.2 2 73
2019-11-18 08:00:00 11.1 31 Noroeste 61 Noroeste 0.2 1003.2 0.9 77
2019-11-18 07:00:00 11.3 27 Noroeste 65 Oeste 3 1002.2 -0.3 73
2019-11-18 06:00:00 12.8 28 Noroeste 56 Oeste 3.6 1002.2 -0.7 90
2019-11-18 05:00:00 15.1 12 Oeste 51 Noroeste 6 1002.3 -1.7 90
2019-11-18 04:00:00 15.8 18 Oeste 46 Sudoeste 9.2 1002.5 -2.6 89
2019-11-18 03:00:00 15.6 18 Oeste 48 Oeste 4 1002.9 -2.7 89
2019-11-18 02:00:00 15.7 12 Sudoeste 43 Sudoeste 1 1004 -2.5 85
2019-11-18 01:00:00 15.7 12 Sudoeste 35 Noroeste 0 1005.1 -1.3 84
2019-11-18 00:00:00 14.9 12 Oeste 39 Oeste 2.4 1005.6 -1.5 85
2019-11-17 23:00:00 15.8 11 Sudoeste 35 Sudoeste 0 1006.5 -0.9 79
2019-11-17 22:00:00 15.4 12 Sudoeste 30 Sudoeste 0 1006.4 -1.3 79
2019-11-17 21:00:00 15.2 14 Sudoeste 32 Sudoeste 0 1007.1 -0.7 77
2019-11-17 20:00:00 14.9 14 Sudoeste 42 Sur 0 1007.4 -0.3 77
2019-11-17 19:00:00 15 14 Sudoeste 35 Oeste 0 1007.7 0 74
2019-11-17 18:00:00 15.6 13 Sudoeste 46 Sur 0 1007.8 0.2 70
2019-11-17 17:00:00 16.6 10 Sudoeste 35 Oeste 0 1007.7 -0.8 64
2019-11-17 16:00:00 17.1 17 Sudoeste 39 Oeste 0 1007.7 -2 60
2019-11-17 15:00:00 18.5 12 Sudoeste 40 Sudoeste 0 1007.6 -2.9 56
2019-11-17 14:00:00 16.9 9 Sudoeste 41 Oeste 0 1008.5 -2 60
2019-11-17 13:00:00 16.7 11 Sur 31 Oeste 0 1009.7 -0.6 58
2019-11-17 12:00:00 16.1 13 Oeste 42 Oeste 0 1010.5 0.2 58
2019-11-17 11:00:00 15 13 Oeste 43 Oeste 0 1010.5 0.7 62
2019-11-17 10:00:00 15 15 Sudoeste 37 Oeste 0 1010.3 0.9 60
2019-11-17 09:00:00 14 13 Sudoeste 40 Oeste 0 1010.3 1.2 64
2019-11-17 08:00:00 13.3 10 Sudoeste 31 Oeste 0 1009.8 0.5 66
2019-11-17 07:00:00 12.4 9 Sudoeste 24 Sur 0 1009.4 -0.3 67
2019-11-17 06:00:00 11.1 5 Sudeste 25 Sur 0 1009.1 -0.6 71
2019-11-17 05:00:00 11.2 9 Sur 17 Sur 0 1009.3 -0.8 70
2019-11-17 04:00:00 11.3 10 Sur 15 Sur 0 1009.7 -0.6 70
2019-11-17 03:00:00 11.5 9 Sudoeste 16 Oeste 0 1009.7 -0.8 68
2019-11-17 02:00:00 11.7 8 Sudoeste 23 Oeste 0 1010.1 -0.2 67
2019-11-17 01:00:00 11.9 8 Sudoeste 26 Oeste 0 1010.3 0.1 64
2019-11-17 00:00:00 12.1 9 Oeste 31 Oeste 0 1010.5 0.9 65
2019-11-16 23:00:00 11.5 10 Oeste 22 Oeste 0 1010.3 0.8 67
2019-11-16 22:00:00 11.4 7 Sudoeste 19 Sudoeste 0 1010.2 1.5 69
2019-11-16 21:00:00 11.2 6 Sudoeste 20 Sudoeste 0 1009.6 1.6 68
2019-11-16 20:00:00 11 5 Oeste 30 Oeste 0 1009.5 1.9 71
2019-11-16 19:00:00 11.2 12 Oeste 32 Oeste 0 1008.7 1.9 69
2019-11-16 18:00:00 11.5 10 Oeste 27 Oeste 0 1008 1.2 65
2019-11-16 17:00:00 12.8 11 Oeste 42 Oeste 0 1007.6 0.8 61
2019-11-16 16:00:00 13.8 16 Oeste 48 Noroeste 0 1006.8 0 53
2019-11-16 15:00:00 14.5 8 Oeste 30 Sudoeste 0 1006.8 -0.4 50
2019-11-16 14:00:00 14.7 10 Oeste 30 Oeste 0 1006.8 -0.1 43
2019-11-16 13:00:00 14.1 11 Oeste 32 Sudoeste 0 1006.8 0.7 47
2019-11-16 12:00:00 13.5 11 Sudoeste 26 Oeste 0 1007.2 2.2 52
2019-11-16 11:00:00 12.5 10 Sudoeste 27 Oeste 0 1006.9 2.9 52
2019-11-16 10:00:00 11.4 11 Oeste 28 Oeste 0 1006.1 2.9 58
2019-11-16 09:00:00 10.1 14 Oeste 35 Sudoeste 0 1005 2.4 63
2019-11-16 08:00:00 9.3 10 Oeste 24 Oeste 0 1004 2 62
2019-11-16 07:00:00 9.3 8 Oeste 24 Oeste 0 1003.2 1.6 62
2019-11-16 06:00:00 9.4 14 Oeste 33 Noroeste 0 1002.6 1.1 64
2019-11-16 05:00:00 9.1 9 Noroeste 35 Noroeste 0 1002 0.5 63
2019-11-16 04:00:00 9.5 15 Noroeste 36 Oeste 0 1001.6 0.1 60
2019-11-16 03:00:00 9.9 12 Noroeste 30 Noroeste 0 1001.5 0.1 60
2019-11-16 02:00:00 10.4 10 Noroeste 34 Noroeste 0 1001.5 0.5 56
2019-11-16 01:00:00 11 10 Noroeste 29 Noroeste 0 1001.5 0.8 56
2019-11-16 00:00:00 11.3 12 Noroeste 31 Noroeste 0 1001.4 1.4 52
2019-11-15 23:00:00 11.8 14 Noroeste 36 Noroeste 0 1001 1.4 53
2019-11-15 22:00:00 12 7 Noroeste 39 Noroeste 0 1000.7 1.2 54
2019-11-15 21:00:00 12.3 20 Noroeste 48 Noroeste 0 1000 0.8 53
2019-11-15 20:00:00 12.2 19 Noroeste 46 Oeste 0 999.6 0.7 52
2019-11-15 19:00:00 12.1 14 Noroeste 43 Noroeste 0 999.5 0.8 56
2019-11-15 18:00:00 12.1 19 Noroeste 47 Norte 0 999.2 0.4 54
2019-11-15 17:00:00 12.5 17 Noroeste 47 Noroeste 0 998.9 -0.4 52
2019-11-15 16:00:00 13.8 17 Noroeste 44 Oeste 0 998.7 -1.3 52
2019-11-15 15:00:00 14.2 18 Noroeste 44 Oeste 0 998.8 -1.7 44
2019-11-15 14:00:00 14.4 17 Noroeste 41 Noroeste 0 999.3 -1.3 49
2019-11-15 13:00:00 13.5 23 Noroeste 48 Noroeste 0 1000 -0.2 57
2019-11-15 12:00:00 13.8 22 Noroeste 52 Noroeste 0 1000.5 1.1 51
2019-11-15 11:00:00 13.2 21 Noroeste 57 Noroeste 0 1000.6 1.2 50
2019-11-15 10:00:00 12.4 28 Noroeste 68 Noroeste 0 1000.2 0.6 55
2019-11-15 09:00:00 12.1 32 Noroeste 58 Noroeste 0 999.4 -0.4 60
2019-11-15 08:00:00 11.6 28 Noroeste 57 Noroeste 0 999.4 -0.2 63
2019-11-15 07:00:00 11.6 26 Noroeste 48 Noroeste 0 999.6 -0.5 66
2019-11-15 06:00:00 12 22 Noroeste 41 Noroeste 0 999.8 -0.9 68
2019-11-15 05:00:00 12.6 17 Noroeste 45 Noroeste 0 999.6 -1.3 67
2019-11-15 04:00:00 13 15 Noroeste 40 Noroeste 0 1000.1 -1.2 65
2019-11-15 03:00:00 13.1 20 Noroeste 44 Noroeste 0 1000.7 -0.9 68
2019-11-15 02:00:00 13 13 Noroeste 42 Noroeste 0 1000.9 -0.8 70
2019-11-15 01:00:00 13 18 Noroeste 45 Norte 0 1001.3 -0.1 70
2019-11-15 00:00:00 12.9 22 Noroeste 46 Noroeste 0 1001.6 0.4 70